sensor_id;sensor_type;location;lat;lon;timestamp;P1;durP1;ratioP1;P2;durP2;ratioP2
57824;SDS011;43912;44.188;21.094;2023-02-01T00:01:27;15.52;;;9.68;;
57824;SDS011;43912;44.188;21.094;2023-02-01T00:03:53;26.63;;;15.15;;
57824;SDS011;43912;44.188;21.094;2023-02-01T00:06:19;23.52;;;13.75;;
57824;SDS011;43912;44.188;21.094;2023-02-01T00:08:45;17.13;;;9.88;;
57824;SDS011;43912;44.188;21.094;2023-02-01T00:11:12;14.30;;;8.98;;
57824;SDS011;43912;44.188;21.094;2023-02-01T00:13:39;20.50;;;10.23;;
57824;SDS011;43912;44.188;21.094;2023-02-01T00:16:07;20.55;;;12.63;;
57824;SDS011;43912;44.188;21.094;2023-02-01T00:18:33;19.88;;;10.70;;
57824;SDS011;43912;44.188;21.094;2023-02-01T00:20:59;18.38;;;11.20;;
57824;SDS011;43912;44.188;21.094;2023-02-01T00:23:26;20.73;;;11.98;;
57824;SDS011;43912;44.188;21.094;2023-02-01T00:25:52;15.80;;;9.73;;
57824;SDS011;43912;44.188;21.094;2023-02-01T00:28:18;19.73;;;12.50;;
57824;SDS011;43912;44.188;21.094;2023-02-01T00:30:44;22.55;;;11.15;;
57824;SDS011;43912;44.188;21.094;2023-02-01T00:33:10;18.38;;;12.60;;
57824;SDS011;43912;44.188;21.094;2023-02-01T00:35:36;22.20;;;12.65;;
57824;SDS011;43912;44.188;21.094;2023-02-01T00:38:02;22.40;;;13.80;;
57824;SDS011;43912;44.188;21.094;2023-02-01T00:40:28;18.95;;;11.27;;
57824;SDS011;43912;44.188;21.094;2023-02-01T00:42:54;31.03;;;19.20;;
57824;SDS011;43912;44.188;21.094;2023-02-01T00:45:22;20.13;;;12.00;;
57824;SDS011;43912;44.188;21.094;2023-02-01T00:47:48;14.27;;;9.05;;
57824;SDS011;43912;44.188;21.094;2023-02-01T00:50:14;19.08;;;11.80;;
57824;SDS011;43912;44.188;21.094;2023-02-01T00:52:40;25.42;;;14.52;;
57824;SDS011;43912;44.188;21.094;2023-02-01T00:55:06;17.52;;;10.43;;
57824;SDS011;43912;44.188;21.094;2023-02-01T00:57:33;20.88;;;12.85;;
57824;SDS011;43912;44.188;21.094;2023-02-01T00:59:59;16.73;;;9.68;;
57824;SDS011;43912;44.188;21.094;2023-02-01T01:02:25;19.38;;;11.43;;
57824;SDS011;43912;44.188;21.094;2023-02-01T01:04:52;16.35;;;10.05;;
57824;SDS011;43912;44.188;21.094;2023-02-01T01:07:18;15.23;;;8.80;;
57824;SDS011;43912;44.188;21.094;2023-02-01T01:09:44;19.80;;;11.05;;
57824;SDS011;43912;44.188;21.094;2023-02-01T01:12:10;16.75;;;8.45;;
57824;SDS011;43912;44.188;21.094;2023-02-01T01:14:36;32.78;;;21.65;;
57824;SDS011;43912;44.188;21.094;2023-02-01T01:17:02;13.50;;;7.10;;
57824;SDS011;43912;44.188;21.094;2023-02-01T01:19:29;16.25;;;9.07;;
57824;SDS011;43912;44.188;21.094;2023-02-01T01:21:55;15.32;;;9.27;;
57824;SDS011;43912;44.188;21.094;2023-02-01T01:24:21;14.15;;;7.13;;
57824;SDS011;43912;44.188;21.094;2023-02-01T01:26:47;17.80;;;10.07;;
57824;SDS011;43912;44.188;21.094;2023-02-01T01:29:13;18.50;;;10.88;;
57824;SDS011;43912;44.188;21.094;2023-02-01T01:31:39;16.02;;;10.23;;
57824;SDS011;43912;44.188;21.094;2023-02-01T01:34:05;25.15;;;16.30;;
57824;SDS011;43912;44.188;21.094;2023-02-01T01:36:31;15.43;;;8.65;;
57824;SDS011;43912;44.188;21.094;2023-02-01T01:38:57;28.17;;;18.45;;
57824;SDS011;43912;44.188;21.094;2023-02-01T01:41:24;40.95;;;29.42;;
57824;SDS011;43912;44.188;21.094;2023-02-01T01:43:58;27.48;;;18.70;;
57824;SDS011;43912;44.188;21.094;2023-02-01T01:48:56;34.90;;;23.92;;
57824;SDS011;43912;44.188;21.094;2023-02-01T01:51:23;23.17;;;16.13;;
57824;SDS011;43912;44.188;21.094;2023-02-01T01:54:01;23.70;;;15.40;;
57824;SDS011;43912;44.188;21.094;2023-02-01T01:56:30;16.65;;;8.57;;
57824;SDS011;43912;44.188;21.094;2023-02-01T01:58:57;33.38;;;22.55;;
57824;SDS011;43912;44.188;21.094;2023-02-01T02:01:23;41.42;;;27.23;;
57824;SDS011;43912;44.188;21.094;2023-02-01T02:03:49;22.67;;;13.00;;
57824;SDS011;43912;44.188;21.094;2023-02-01T02:06:20;27.67;;;17.75;;
57824;SDS011;43912;44.188;21.094;2023-02-01T02:08:50;20.15;;;10.82;;
57824;SDS011;43912;44.188;21.094;2023-02-01T02:11:17;22.45;;;12.73;;
57824;SDS011;43912;44.188;21.094;2023-02-01T02:13:44;13.27;;;7.70;;
57824;SDS011;43912;44.188;21.094;2023-02-01T02:16:20;17.05;;;9.32;;
57824;SDS011;43912;44.188;21.094;2023-02-01T02:21:17;17.70;;;9.27;;
57824;SDS011;43912;44.188;21.094;2023-02-01T02:24:01;15.73;;;7.18;;
57824;SDS011;43912;44.188;21.094;2023-02-01T02:26:38;16.25;;;10.38;;
57824;SDS011;43912;44.188;21.094;2023-02-01T02:34:18;16.92;;;9.10;;
57824;SDS011;43912;44.188;21.094;2023-02-01T02:39:36;19.75;;;10.45;;
57824;SDS011;43912;44.188;21.094;2023-02-01T02:42:17;17.63;;;10.50;;
57824;SDS011;43912;44.188;21.094;2023-02-01T02:45:16;14.35;;;5.88;;
57824;SDS011;43912;44.188;21.094;2023-02-01T02:50:35;9.88;;;3.75;;
57824;SDS011;43912;44.188;21.094;2023-02-01T02:53:22;12.18;;;4.47;;
57824;SDS011;43912;44.188;21.094;2023-02-01T02:56:08;12.90;;;6.20;;
57824;SDS011;43912;44.188;21.094;2023-02-01T02:58:54;15.80;;;6.60;;
57824;SDS011;43912;44.188;21.094;2023-02-01T03:01:39;13.48;;;5.68;;
57824;SDS011;43912;44.188;21.094;2023-02-01T03:04:24;13.30;;;6.15;;
57824;SDS011;43912;44.188;21.094;2023-02-01T03:06:51;13.20;;;6.65;;
57824;SDS011;43912;44.188;21.094;2023-02-01T03:09:24;31.65;;;14.05;;
57824;SDS011;43912;44.188;21.094;2023-02-01T03:11:52;20.48;;;9.88;;
57824;SDS011;43912;44.188;21.094;2023-02-01T03:14:40;17.98;;;9.13;;
57824;SDS011;43912;44.188;21.094;2023-02-01T03:17:13;21.75;;;11.00;;
57824;SDS011;43912;44.188;21.094;2023-02-01T03:19:43;19.20;;;10.75;;
57824;SDS011;43912;44.188;21.094;2023-02-01T03:22:14;19.80;;;10.60;;
57824;SDS011;43912;44.188;21.094;2023-02-01T03:24:41;15.73;;;8.77;;
57824;SDS011;43912;44.188;21.094;2023-02-01T03:32:10;20.40;;;11.60;;
57824;SDS011;43912;44.188;21.094;2023-02-01T03:34:36;18.08;;;9.93;;
57824;SDS011;43912;44.188;21.094;2023-02-01T03:37:04;39.22;;;23.10;;
57824;SDS011;43912;44.188;21.094;2023-02-01T03:39:32;15.57;;;8.85;;
57824;SDS011;43912;44.188;21.094;2023-02-01T03:42:01;19.55;;;12.05;;
57824;SDS011;43912;44.188;21.094;2023-02-01T03:44:36;17.17;;;10.68;;
57824;SDS011;43912;44.188;21.094;2023-02-01T03:49:33;15.40;;;7.53;;
57824;SDS011;43912;44.188;21.094;2023-02-01T03:52:00;16.80;;;9.10;;
57824;SDS011;43912;44.188;21.094;2023-02-01T03:54:27;17.30;;;10.60;;
57824;SDS011;43912;44.188;21.094;2023-02-01T03:56:55;21.15;;;12.45;;
57824;SDS011;43912;44.188;21.094;2023-02-01T03:59:22;21.10;;;11.43;;
57824;SDS011;43912;44.188;21.094;2023-02-01T04:01:49;19.52;;;10.98;;
57824;SDS011;43912;44.188;21.094;2023-02-01T04:04:15;18.60;;;10.80;;
57824;SDS011;43912;44.188;21.094;2023-02-01T04:06:50;17.63;;;10.27;;
57824;SDS011;43912;44.188;21.094;2023-02-01T04:09:17;17.38;;;9.75;;
57824;SDS011;43912;44.188;21.094;2023-02-01T04:11:43;14.95;;;6.80;;
57824;SDS011;43912;44.188;21.094;2023-02-01T04:14:09;11.07;;;4.85;;
57824;SDS011;43912;44.188;21.094;2023-02-01T04:16:35;9.93;;;5.00;;
57824;SDS011;43912;44.188;21.094;2023-02-01T04:19:01;11.10;;;4.60;;
57824;SDS011;43912;44.188;21.094;2023-02-01T04:21:27;8.07;;;3.20;;
57824;SDS011;43912;44.188;21.094;2023-02-01T04:23:53;11.35;;;5.22;;
57824;SDS011;43912;44.188;21.094;2023-02-01T04:26:20;9.25;;;4.40;;
57824;SDS011;43912;44.188;21.094;2023-02-01T04:28:46;9.90;;;3.50;;
57824;SDS011;43912;44.188;21.094;2023-02-01T04:31:16;10.10;;;4.40;;
57824;SDS011;43912;44.188;21.094;2023-02-01T04:33:43;10.45;;;4.82;;
57824;SDS011;43912;44.188;21.094;2023-02-01T04:36:09;11.07;;;5.70;;
57824;SDS011;43912;44.188;21.094;2023-02-01T04:38:35;11.80;;;5.57;;
57824;SDS011;43912;44.188;21.094;2023-02-01T04:41:01;11.25;;;5.28;;
57824;SDS011;43912;44.188;21.094;2023-02-01T04:43:28;14.73;;;5.60;;
57824;SDS011;43912;44.188;21.094;2023-02-01T04:45:54;12.40;;;5.00;;
57824;SDS011;43912;44.188;21.094;2023-02-01T04:48:20;11.57;;;5.38;;
57824;SDS011;43912;44.188;21.094;2023-02-01T04:50:48;12.07;;;5.28;;
57824;SDS011;43912;44.188;21.094;2023-02-01T04:53:14;10.20;;;4.75;;
57824;SDS011;43912;44.188;21.094;2023-02-01T04:55:40;10.35;;;4.88;;
57824;SDS011;43912;44.188;21.094;2023-02-01T04:58:06;8.82;;;3.70;;
57824;SDS011;43912;44.188;21.094;2023-02-01T05:00:33;9.93;;;4.18;;
57824;SDS011;43912;44.188;21.094;2023-02-01T05:02:59;18.02;;;6.40;;
57824;SDS011;43912;44.188;21.094;2023-02-01T05:05:26;14.48;;;7.35;;
57824;SDS011;43912;44.188;21.094;2023-02-01T05:07:52;24.40;;;9.18;;
57824;SDS011;43912;44.188;21.094;2023-02-01T05:10:18;26.85;;;13.15;;
57824;SDS011;43912;44.188;21.094;2023-02-01T05:12:44;18.67;;;11.07;;
57824;SDS011;43912;44.188;21.094;2023-02-01T05:15:29;18.77;;;10.18;;
57824;SDS011;43912;44.188;21.094;2023-02-01T05:17:55;46.83;;;22.90;;
57824;SDS011;43912;44.188;21.094;2023-02-01T05:20:21;22.90;;;11.95;;
57824;SDS011;43912;44.188;21.094;2023-02-01T05:22:47;31.02;;;21.35;;
57824;SDS011;43912;44.188;21.094;2023-02-01T05:25:13;29.17;;;13.95;;
57824;SDS011;43912;44.188;21.094;2023-02-01T05:27:39;25.52;;;12.27;;
57824;SDS011;43912;44.188;21.094;2023-02-01T05:30:06;22.95;;;12.02;;
57824;SDS011;43912;44.188;21.094;2023-02-01T05:32:32;17.33;;;8.65;;
57824;SDS011;43912;44.188;21.094;2023-02-01T05:34:58;21.35;;;12.45;;
57824;SDS011;43912;44.188;21.094;2023-02-01T05:37:24;24.67;;;14.48;;
57824;SDS011;43912;44.188;21.094;2023-02-01T05:39:50;27.90;;;15.38;;
57824;SDS011;43912;44.188;21.094;2023-02-01T05:42:16;13.82;;;7.55;;
57824;SDS011;43912;44.188;21.094;2023-02-01T05:44:42;14.82;;;7.35;;
57824;SDS011;43912;44.188;21.094;2023-02-01T05:47:08;12.00;;;6.47;;
57824;SDS011;43912;44.188;21.094;2023-02-01T05:49:34;20.15;;;8.50;;
57824;SDS011;43912;44.188;21.094;2023-02-01T05:52:01;19.90;;;10.50;;
57824;SDS011;43912;44.188;21.094;2023-02-01T05:54:27;24.33;;;12.57;;
57824;SDS011;43912;44.188;21.094;2023-02-01T05:56:53;20.80;;;11.88;;
57824;SDS011;43912;44.188;21.094;2023-02-01T05:59:19;21.77;;;11.63;;
57824;SDS011;43912;44.188;21.094;2023-02-01T06:01:45;28.00;;;16.00;;
57824;SDS011;43912;44.188;21.094;2023-02-01T06:04:12;25.70;;;17.67;;
57824;SDS011;43912;44.188;21.094;2023-02-01T06:06:38;28.77;;;18.60;;
57824;SDS011;43912;44.188;21.094;2023-02-01T06:09:04;27.75;;;19.48;;
57824;SDS011;43912;44.188;21.094;2023-02-01T06:11:30;48.80;;;29.08;;
57824;SDS011;43912;44.188;21.094;2023-02-01T06:13:56;57.83;;;35.67;;
57824;SDS011;43912;44.188;21.094;2023-02-01T06:16:22;43.63;;;27.48;;
57824;SDS011;43912;44.188;21.094;2023-02-01T06:18:48;37.90;;;24.17;;
57824;SDS011;43912;44.188;21.094;2023-02-01T06:54:54;16.30;;;9.68;;
57824;SDS011;43912;44.188;21.094;2023-02-01T06:57:20;18.92;;;10.85;;
57824;SDS011;43912;44.188;21.094;2023-02-01T06:59:46;21.65;;;12.07;;
57824;SDS011;43912;44.188;21.094;2023-02-01T07:02:12;17.17;;;9.38;;
57824;SDS011;43912;44.188;21.094;2023-02-01T07:04:38;17.38;;;9.30;;
57824;SDS011;43912;44.188;21.094;2023-02-01T07:07:04;14.05;;;8.48;;
57824;SDS011;43912;44.188;21.094;2023-02-01T07:09:30;15.88;;;9.60;;
57824;SDS011;43912;44.188;21.094;2023-02-01T07:11:57;16.13;;;8.23;;
57824;SDS011;43912;44.188;21.094;2023-02-01T07:14:23;13.90;;;7.45;;
57824;SDS011;43912;44.188;21.094;2023-02-01T07:16:49;17.25;;;8.45;;
57824;SDS011;43912;44.188;21.094;2023-02-01T07:19:15;16.42;;;8.23;;
57824;SDS011;43912;44.188;21.094;2023-02-01T07:21:41;14.43;;;6.90;;
57824;SDS011;43912;44.188;21.094;2023-02-01T07:24:11;13.05;;;6.88;;
57824;SDS011;43912;44.188;21.094;2023-02-01T07:26:37;11.50;;;6.35;;
57824;SDS011;43912;44.188;21.094;2023-02-01T07:29:03;14.57;;;9.02;;
57824;SDS011;43912;44.188;21.094;2023-02-01T07:31:29;26.00;;;15.13;;
57824;SDS011;43912;44.188;21.094;2023-02-01T07:33:55;14.45;;;8.07;;
57824;SDS011;43912;44.188;21.094;2023-02-01T07:36:22;17.60;;;10.25;;
57824;SDS011;43912;44.188;21.094;2023-02-01T07:38:48;15.35;;;9.65;;
57824;SDS011;43912;44.188;21.094;2023-02-01T07:41:16;12.18;;;7.15;;
57824;SDS011;43912;44.188;21.094;2023-02-01T07:43:43;14.52;;;9.88;;
57824;SDS011;43912;44.188;21.094;2023-02-01T07:46:09;12.18;;;7.93;;
57824;SDS011;43912;44.188;21.094;2023-02-01T07:48:36;13.98;;;8.45;;
57824;SDS011;43912;44.188;21.094;2023-02-01T07:53:28;14.48;;;8.63;;
57824;SDS011;43912;44.188;21.094;2023-02-01T07:55:55;12.93;;;6.90;;
57824;SDS011;43912;44.188;21.094;2023-02-01T07:58:21;16.13;;;11.35;;
57824;SDS011;43912;44.188;21.094;2023-02-01T08:00:48;13.70;;;8.63;;
57824;SDS011;43912;44.188;21.094;2023-02-01T08:03:32;13.43;;;7.60;;
57824;SDS011;43912;44.188;21.094;2023-02-01T08:05:58;15.60;;;11.45;;
57824;SDS011;43912;44.188;21.094;2023-02-01T08:08:24;12.93;;;8.55;;
57824;SDS011;43912;44.188;21.094;2023-02-01T08:10:50;13.43;;;9.10;;
57824;SDS011;43912;44.188;21.094;2023-02-01T08:13:19;14.18;;;9.63;;
57824;SDS011;43912;44.188;21.094;2023-02-01T08:15:45;16.50;;;13.10;;
57824;SDS011;43912;44.188;21.094;2023-02-01T08:18:11;14.20;;;9.57;;
57824;SDS011;43912;44.188;21.094;2023-02-01T08:20:41;17.05;;;9.85;;
57824;SDS011;43912;44.188;21.094;2023-02-01T08:23:08;17.20;;;11.02;;
57824;SDS011;43912;44.188;21.094;2023-02-01T08:25:34;17.85;;;14.00;;
57824;SDS011;43912;44.188;21.094;2023-02-01T08:28:01;15.23;;;11.93;;
57824;SDS011;43912;44.188;21.094;2023-02-01T08:30:27;13.02;;;9.50;;
57824;SDS011;43912;44.188;21.094;2023-02-01T08:32:53;15.25;;;9.52;;
57824;SDS011;43912;44.188;21.094;2023-02-01T08:35:19;10.18;;;6.35;;
57824;SDS011;43912;44.188;21.094;2023-02-01T08:37:45;13.85;;;9.23;;
57824;SDS011;43912;44.188;21.094;2023-02-01T08:40:11;12.60;;;7.30;;
57824;SDS011;43912;44.188;21.094;2023-02-01T08:42:39;12.75;;;7.28;;
57824;SDS011;43912;44.188;21.094;2023-02-01T08:45:18;12.52;;;8.90;;
57824;SDS011;43912;44.188;21.094;2023-02-01T08:47:45;10.45;;;6.65;;
57824;SDS011;43912;44.188;21.094;2023-02-01T08:50:12;15.63;;;11.48;;
57824;SDS011;43912;44.188;21.094;2023-02-01T08:52:38;12.93;;;7.28;;
57824;SDS011;43912;44.188;21.094;2023-02-01T08:55:05;10.73;;;5.68;;
57824;SDS011;43912;44.188;21.094;2023-02-01T08:57:31;8.85;;;5.35;;
57824;SDS011;43912;44.188;21.094;2023-02-01T08:59:57;10.35;;;6.80;;
57824;SDS011;43912;44.188;21.094;2023-02-01T09:02:24;7.82;;;4.80;;
57824;SDS011;43912;44.188;21.094;2023-02-01T09:04:50;9.38;;;5.80;;
57824;SDS011;43912;44.188;21.094;2023-02-01T09:07:17;10.27;;;6.78;;
57824;SDS011;43912;44.188;21.094;2023-02-01T09:09:43;19.50;;;8.90;;
57824;SDS011;43912;44.188;21.094;2023-02-01T09:12:09;7.97;;;4.85;;
57824;SDS011;43912;44.188;21.094;2023-02-01T09:14:35;9.98;;;6.05;;
57824;SDS011;43912;44.188;21.094;2023-02-01T09:17:02;9.23;;;5.75;;
57824;SDS011;43912;44.188;21.094;2023-02-01T09:19:28;11.50;;;5.47;;
57824;SDS011;43912;44.188;21.094;2023-02-01T09:21:54;8.63;;;4.97;;
57824;SDS011;43912;44.188;21.094;2023-02-01T09:24:20;8.20;;;5.03;;
57824;SDS011;43912;44.188;21.094;2023-02-01T09:26:46;9.65;;;5.63;;
57824;SDS011;43912;44.188;21.094;2023-02-01T09:29:12;9.23;;;4.97;;
57824;SDS011;43912;44.188;21.094;2023-02-01T09:31:39;7.50;;;3.90;;
57824;SDS011;43912;44.188;21.094;2023-02-01T09:34:05;7.75;;;3.83;;
57824;SDS011;43912;44.188;21.094;2023-02-01T09:36:32;11.52;;;5.35;;
57824;SDS011;43912;44.188;21.094;2023-02-01T09:38:58;8.43;;;4.13;;
57824;SDS011;43912;44.188;21.094;2023-02-01T09:46:37;10.32;;;4.25;;
57824;SDS011;43912;44.188;21.094;2023-02-01T09:49:04;10.93;;;4.22;;
57824;SDS011;43912;44.188;21.094;2023-02-01T09:51:35;9.93;;;5.53;;
57824;SDS011;43912;44.188;21.094;2023-02-01T09:54:03;9.77;;;6.28;;
57824;SDS011;43912;44.188;21.094;2023-02-01T09:56:53;10.32;;;6.75;;
57824;SDS011;43912;44.188;21.094;2023-02-01T10:01:49;11.60;;;8.02;;
57824;SDS011;43912;44.188;21.094;2023-02-01T10:04:16;10.90;;;5.72;;
57824;SDS011;43912;44.188;21.094;2023-02-01T10:09:31;10.00;;;5.90;;
57824;SDS011;43912;44.188;21.094;2023-02-01T10:16:55;11.45;;;7.47;;
57824;SDS011;43912;44.188;21.094;2023-02-01T10:22:11;12.00;;;8.32;;
57824;SDS011;43912;44.188;21.094;2023-02-01T10:24:46;26.13;;;21.65;;
57824;SDS011;43912;44.188;21.094;2023-02-01T10:27:33;89.78;;;63.85;;
57824;SDS011;43912;44.188;21.094;2023-02-01T10:30:01;30.83;;;25.35;;
57824;SDS011;43912;44.188;21.094;2023-02-01T10:32:31;25.45;;;19.10;;
57824;SDS011;43912;44.188;21.094;2023-02-01T10:34:58;40.63;;;31.10;;
57824;SDS011;43912;44.188;21.094;2023-02-01T10:39:57;21.85;;;14.60;;
57824;SDS011;43912;44.188;21.094;2023-02-01T10:42:25;22.55;;;17.27;;
57824;SDS011;43912;44.188;21.094;2023-02-01T10:44:51;46.92;;;41.35;;
57824;SDS011;43912;44.188;21.094;2023-02-01T10:47:18;14.52;;;9.98;;
57824;SDS011;43912;44.188;21.094;2023-02-01T10:52:21;12.93;;;7.68;;
57824;SDS011;43912;44.188;21.094;2023-02-01T10:54:50;18.35;;;12.20;;
57824;SDS011;43912;44.188;21.094;2023-02-01T10:57:21;19.83;;;17.30;;
57824;SDS011;43912;44.188;21.094;2023-02-01T10:59:49;14.50;;;9.55;;
57824;SDS011;43912;44.188;21.094;2023-02-01T11:02:18;13.88;;;7.38;;
57824;SDS011;43912;44.188;21.094;2023-02-01T11:04:45;13.40;;;9.13;;
57824;SDS011;43912;44.188;21.094;2023-02-01T11:07:16;10.90;;;6.63;;
57824;SDS011;43912;44.188;21.094;2023-02-01T11:09:48;14.40;;;9.23;;
57824;SDS011;43912;44.188;21.094;2023-02-01T11:12:35;13.65;;;9.38;;
57824;SDS011;43912;44.188;21.094;2023-02-01T11:17:41;28.70;;;18.13;;
57824;SDS011;43912;44.188;21.094;2023-02-01T11:20:18;18.80;;;12.43;;
57824;SDS011;43912;44.188;21.094;2023-02-01T11:22:54;11.40;;;6.15;;
57824;SDS011;43912;44.188;21.094;2023-02-01T11:25:21;30.30;;;22.90;;
57824;SDS011;43912;44.188;21.094;2023-02-01T11:27:50;27.05;;;19.83;;
57824;SDS011;43912;44.188;21.094;2023-02-01T11:30:19;22.67;;;16.75;;
57824;SDS011;43912;44.188;21.094;2023-02-01T11:32:48;34.45;;;28.55;;
57824;SDS011;43912;44.188;21.094;2023-02-01T11:35:16;27.17;;;22.08;;
57824;SDS011;43912;44.188;21.094;2023-02-01T11:37:44;22.95;;;18.23;;
57824;SDS011;43912;44.188;21.094;2023-02-01T11:42:56;24.80;;;16.80;;
57824;SDS011;43912;44.188;21.094;2023-02-01T11:45:27;22.40;;;18.00;;
57824;SDS011;43912;44.188;21.094;2023-02-01T11:47:53;11.50;;;8.63;;
57824;SDS011;43912;44.188;21.094;2023-02-01T11:56:15;19.63;;;15.65;;
57824;SDS011;43912;44.188;21.094;2023-02-01T11:58:55;21.75;;;16.08;;
57824;SDS011;43912;44.188;21.094;2023-02-01T12:01:33;15.70;;;11.88;;
57824;SDS011;43912;44.188;21.094;2023-02-01T12:16:37;13.38;;;10.25;;
57824;SDS011;43912;44.188;21.094;2023-02-01T12:19:17;9.25;;;5.60;;
57824;SDS011;43912;44.188;21.094;2023-02-01T12:29:47;16.92;;;7.15;;
57824;SDS011;43912;44.188;21.094;2023-02-01T12:32:29;16.02;;;10.20;;
57824;SDS011;43912;44.188;21.094;2023-02-01T12:35:20;18.50;;;4.72;;
57824;SDS011;43912;44.188;21.094;2023-02-01T12:40:33;18.65;;;13.07;;
57824;SDS011;43912;44.188;21.094;2023-02-01T12:43:07;15.55;;;12.30;;
57824;SDS011;43912;44.188;21.094;2023-02-01T12:45:42;7.70;;;3.28;;
57824;SDS011;43912;44.188;21.094;2023-02-01T12:49:10;11.10;;;6.18;;
57824;SDS011;43912;44.188;21.094;2023-02-01T12:51:23;14.73;;;10.93;;
57824;SDS011;43912;44.188;21.094;2023-02-01T12:56:21;14.30;;;9.93;;
57824;SDS011;43912;44.188;21.094;2023-02-01T12:58:56;20.38;;;8.95;;
57824;SDS011;43912;44.188;21.094;2023-02-01T13:01:35;34.70;;;28.13;;
57824;SDS011;43912;44.188;21.094;2023-02-01T13:04:16;22.67;;;17.05;;
57824;SDS011;43912;44.188;21.094;2023-02-01T13:06:49;12.43;;;7.55;;
57824;SDS011;43912;44.188;21.094;2023-02-01T13:11:53;12.95;;;6.32;;
57824;SDS011;43912;44.188;21.094;2023-02-01T13:16:48;17.70;;;12.68;;
57824;SDS011;43912;44.188;21.094;2023-02-01T13:19:22;12.18;;;6.57;;
57824;SDS011;43912;44.188;21.094;2023-02-01T13:21:53;13.13;;;6.85;;
57824;SDS011;43912;44.188;21.094;2023-02-01T13:26:48;9.32;;;5.57;;
57824;SDS011;43912;44.188;21.094;2023-02-01T13:29:14;13.95;;;8.43;;
57824;SDS011;43912;44.188;21.094;2023-02-01T13:42:01;12.13;;;6.15;;
57824;SDS011;43912;44.188;21.094;2023-02-01T13:44:31;10.75;;;6.18;;
57824;SDS011;43912;44.188;21.094;2023-02-01T13:47:01;15.05;;;8.32;;
57824;SDS011;43912;44.188;21.094;2023-02-01T13:49:28;16.63;;;7.18;;
57824;SDS011;43912;44.188;21.094;2023-02-01T13:51:57;14.35;;;7.15;;
57824;SDS011;43912;44.188;21.094;2023-02-01T13:54:31;12.57;;;5.85;;
57824;SDS011;43912;44.188;21.094;2023-02-01T13:56:58;17.60;;;8.70;;
57824;SDS011;43912;44.188;21.094;2023-02-01T14:04:51;20.63;;;12.02;;
57824;SDS011;43912;44.188;21.094;2023-02-01T14:07:21;15.38;;;10.02;;
57824;SDS011;43912;44.188;21.094;2023-02-01T14:09:47;16.63;;;9.07;;
57824;SDS011;43912;44.188;21.094;2023-02-01T14:17:48;16.10;;;8.93;;
57824;SDS011;43912;44.188;21.094;2023-02-01T14:20:36;17.23;;;10.80;;
57824;SDS011;43912;44.188;21.094;2023-02-01T14:23:01;17.60;;;11.00;;
57824;SDS011;43912;44.188;21.094;2023-02-01T14:25:32;27.88;;;13.77;;
57824;SDS011;43912;44.188;21.094;2023-02-01T14:27:58;27.80;;;20.30;;
57824;SDS011;43912;44.188;21.094;2023-02-01T14:30:24;32.85;;;22.83;;
57824;SDS011;43912;44.188;21.094;2023-02-01T14:32:50;32.15;;;21.60;;
57824;SDS011;43912;44.188;21.094;2023-02-01T14:35:25;36.15;;;24.17;;
57824;SDS011;43912;44.188;21.094;2023-02-01T14:37:53;30.63;;;21.10;;
57824;SDS011;43912;44.188;21.094;2023-02-01T14:40:20;32.10;;;18.17;;
57824;SDS011;43912;44.188;21.094;2023-02-01T14:42:49;24.17;;;13.85;;
57824;SDS011;43912;44.188;21.094;2023-02-01T14:57:57;75.75;;;37.22;;
57824;SDS011;43912;44.188;21.094;2023-02-01T15:00:25;35.78;;;22.98;;
57824;SDS011;43912;44.188;21.094;2023-02-01T15:02:52;24.60;;;17.02;;
57824;SDS011;43912;44.188;21.094;2023-02-01T15:05:23;103.22;;;88.93;;
57824;SDS011;43912;44.188;21.094;2023-02-01T15:07:50;105.47;;;81.45;;
57824;SDS011;43912;44.188;21.094;2023-02-01T15:10:17;102.20;;;74.35;;
57824;SDS011;43912;44.188;21.094;2023-02-01T15:12:44;57.78;;;41.03;;
57824;SDS011;43912;44.188;21.094;2023-02-01T15:15:18;53.30;;;42.08;;
57824;SDS011;43912;44.188;21.094;2023-02-01T15:20:21;113.00;;;96.20;;
57824;SDS011;43912;44.188;21.094;2023-02-01T15:22:52;83.18;;;66.80;;
57824;SDS011;43912;44.188;21.094;2023-02-01T15:25:19;87.28;;;63.20;;
57824;SDS011;43912;44.188;21.094;2023-02-01T15:27:46;80.90;;;57.10;;
57824;SDS011;43912;44.188;21.094;2023-02-01T15:30:16;68.97;;;45.85;;
57824;SDS011;43912;44.188;21.094;2023-02-01T15:32:43;55.50;;;38.55;;
57824;SDS011;43912;44.188;21.094;2023-02-01T15:38:17;64.00;;;43.53;;
57824;SDS011;43912;44.188;21.094;2023-02-01T15:40:52;70.75;;;42.72;;
57824;SDS011;43912;44.188;21.094;2023-02-01T15:43:19;65.03;;;40.78;;
57824;SDS011;43912;44.188;21.094;2023-02-01T15:45:45;36.20;;;23.45;;
57824;SDS011;43912;44.188;21.094;2023-02-01T15:48:12;44.20;;;29.27;;
57824;SDS011;43912;44.188;21.094;2023-02-01T15:50:40;38.22;;;23.05;;
57824;SDS011;43912;44.188;21.094;2023-02-01T15:53:09;39.85;;;28.55;;
57824;SDS011;43912;44.188;21.094;2023-02-01T15:55:40;32.08;;;24.05;;
57824;SDS011;43912;44.188;21.094;2023-02-01T15:58:07;33.22;;;24.70;;
57824;SDS011;43912;44.188;21.094;2023-02-01T16:00:44;52.67;;;37.10;;
57824;SDS011;43912;44.188;21.094;2023-02-01T16:05:59;27.33;;;17.75;;
57824;SDS011;43912;44.188;21.094;2023-02-01T16:08:27;29.45;;;16.55;;
57824;SDS011;43912;44.188;21.094;2023-02-01T16:10:54;24.88;;;14.15;;
57824;SDS011;43912;44.188;21.094;2023-02-01T16:13:25;25.75;;;15.35;;
57824;SDS011;43912;44.188;21.094;2023-02-01T16:15:52;38.47;;;24.63;;
57824;SDS011;43912;44.188;21.094;2023-02-01T16:18:18;44.42;;;29.42;;
57824;SDS011;43912;44.188;21.094;2023-02-01T16:20:44;47.80;;;24.83;;
57824;SDS011;43912;44.188;21.094;2023-02-01T16:23:10;37.28;;;20.45;;
57824;SDS011;43912;44.188;21.094;2023-02-01T16:25:36;43.97;;;29.65;;
57824;SDS011;43912;44.188;21.094;2023-02-01T16:28:03;38.10;;;27.55;;
57824;SDS011;43912;44.188;21.094;2023-02-01T16:30:33;31.17;;;23.38;;
57824;SDS011;43912;44.188;21.094;2023-02-01T16:32:59;69.55;;;63.30;;
57824;SDS011;43912;44.188;21.094;2023-02-01T16:35:31;25.20;;;18.90;;
57824;SDS011;43912;44.188;21.094;2023-02-01T16:38:01;36.88;;;27.30;;
57824;SDS011;43912;44.188;21.094;2023-02-01T16:40:27;27.92;;;19.83;;
57824;SDS011;43912;44.188;21.094;2023-02-01T16:42:53;35.58;;;25.30;;
57824;SDS011;43912;44.188;21.094;2023-02-01T16:45:22;37.08;;;25.25;;
57824;SDS011;43912;44.188;21.094;2023-02-01T16:47:49;113.15;;;70.90;;
57824;SDS011;43912;44.188;21.094;2023-02-01T16:50:26;196.38;;;127.68;;
57824;SDS011;43912;44.188;21.094;2023-02-01T16:52:52;78.78;;;54.03;;
57824;SDS011;43912;44.188;21.094;2023-02-01T16:55:19;81.45;;;52.47;;
57824;SDS011;43912;44.188;21.094;2023-02-01T16:57:46;69.93;;;42.75;;
57824;SDS011;43912;44.188;21.094;2023-02-01T17:00:12;59.03;;;37.85;;
57824;SDS011;43912;44.188;21.094;2023-02-01T17:02:40;61.45;;;42.33;;
57824;SDS011;43912;44.188;21.094;2023-02-01T17:05:07;187.57;;;131.63;;
57824;SDS011;43912;44.188;21.094;2023-02-01T17:07:33;143.80;;;97.93;;
57824;SDS011;43912;44.188;21.094;2023-02-01T17:09:59;138.13;;;98.82;;
57824;SDS011;43912;44.188;21.094;2023-02-01T17:12:28;104.10;;;70.35;;
57824;SDS011;43912;44.188;21.094;2023-02-01T17:14:57;64.18;;;47.22;;